sensor_id;sensor_type;location;lat;lon;timestamp;pressure;altitude;pressure_sealevel;temperature;humidity
64544;BME280;50936;51.660;5.616;2023-03-04T00:00:00;102262.53;;;5.87;96.50
64544;BME280;50936;51.660;5.616;2023-03-04T00:02:35;102261.69;;;5.85;96.64
64544;BME280;50936;51.660;5.616;2023-03-04T00:05:02;102263.53;;;5.83;97.21
64544;BME280;50936;51.660;5.616;2023-03-04T00:07:30;102264.44;;;5.82;97.33
64544;BME280;50936;51.660;5.616;2023-03-04T00:09:57;102261.75;;;5.82;97.20
64544;BME280;50936;51.660;5.616;2023-03-04T00:12:30;102260.91;;;5.79;97.70
64544;BME280;50936;51.660;5.616;2023-03-04T00:15:03;102262.78;;;5.77;98.15
64544;BME280;50936;51.660;5.616;2023-03-04T00:17:30;102262.78;;;5.77;98.03
64544;BME280;50936;51.660;5.616;2023-03-04T00:19:58;102259.06;;;5.82;97.67
64544;BME280;50936;51.660;5.616;2023-03-04T00:22:24;102255.50;;;5.83;97.95
64544;BME280;50936;51.660;5.616;2023-03-04T00:24:51;102254.47;;;5.87;97.92
64544;BME280;50936;51.660;5.616;2023-03-04T00:27:18;102255.50;;;5.83;98.18
64544;BME280;50936;51.660;5.616;2023-03-04T00:29:45;102258.31;;;5.76;98.12
64544;BME280;50936;51.660;5.616;2023-03-04T00:32:12;102255.63;;;5.76;98.20
64544;BME280;50936;51.660;5.616;2023-03-04T00:34:39;102252.94;;;5.76;98.43
64544;BME280;50936;51.660;5.616;2023-03-04T00:37:06;102250.28;;;5.76;98.39
64544;BME280;50936;51.660;5.616;2023-03-04T00:39:32;102245.84;;;5.75;98.33
64544;BME280;50936;51.660;5.616;2023-03-04T00:41:59;102247.72;;;5.72;98.60
64544;BME280;50936;51.660;5.616;2023-03-04T00:44:26;102247.72;;;5.72;98.56
64544;BME280;50936;51.660;5.616;2023-03-04T00:46:53;102248.53;;;5.75;98.61
64544;BME280;50936;51.660;5.616;2023-03-04T00:49:20;102246.81;;;5.71;98.82
64544;BME280;50936;51.660;5.616;2023-03-04T00:51:47;102252.28;;;5.68;98.40
64544;BME280;50936;51.660;5.616;2023-03-04T00:54:14;102255.97;;;5.64;98.66
64544;BME280;50936;51.660;5.616;2023-03-04T00:56:41;102255.97;;;5.64;99.31
64544;BME280;50936;51.660;5.616;2023-03-04T00:59:11;102247.16;;;5.61;99.67
64544;BME280;50936;51.660;5.616;2023-03-04T01:01:37;102263.25;;;5.59;99.75
64544;BME280;50936;51.660;5.616;2023-03-04T01:04:04;102258.84;;;5.56;100.00
64544;BME280;50936;51.660;5.616;2023-03-04T01:06:31;102259.81;;;5.54;99.39
64544;BME280;50936;51.660;5.616;2023-03-04T01:08:58;102255.31;;;5.54;100.00
64544;BME280;50936;51.660;5.616;2023-03-04T01:11:25;102257.16;;;5.52;99.68
64544;BME280;50936;51.660;5.616;2023-03-04T01:13:52;102260.78;;;5.51;100.00
64544;BME280;50936;51.660;5.616;2023-03-04T01:16:19;102256.38;;;5.49;100.00
64544;BME280;50936;51.660;5.616;2023-03-04T01:18:46;102258.13;;;5.50;100.00
64544;BME280;50936;51.660;5.616;2023-03-04T01:21:13;102259.88;;;5.51;99.78
64544;BME280;50936;51.660;5.616;2023-03-04T01:23:40;102251.81;;;5.52;99.87
64544;BME280;50936;51.660;5.616;2023-03-04T01:26:07;102253.50;;;5.55;99.54
64544;BME280;50936;51.660;5.616;2023-03-04T01:28:34;102252.53;;;5.59;99.26
64544;BME280;50936;51.660;5.616;2023-03-04T01:31:02;102241.88;;;5.56;99.94
64544;BME280;50936;51.660;5.616;2023-03-04T01:33:29;102249.84;;;5.59;99.85
64544;BME280;50936;51.660;5.616;2023-03-04T01:35:57;102248.91;;;5.60;99.64
64544;BME280;50936;51.660;5.616;2023-03-04T01:38:24;102251.56;;;5.62;99.69
64544;BME280;50936;51.660;5.616;2023-03-04T01:40:52;102245.25;;;5.64;99.74
64544;BME280;50936;51.660;5.616;2023-03-04T01:43:22;102239.91;;;5.64;99.95
64544;BME280;50936;51.660;5.616;2023-03-04T01:45:53;102231.09;;;5.59;100.00
64544;BME280;50936;51.660;5.616;2023-03-04T01:48:24;102225.81;;;5.56;100.00
64544;BME280;50936;51.660;5.616;2023-03-04T01:50:53;102231.16;;;5.56;100.00
64544;BME280;50936;51.660;5.616;2023-03-04T01:53:23;102223.97;;;5.58;100.00
64544;BME280;50936;51.660;5.616;2023-03-04T01:55:58;102219.47;;;5.58;100.00
64544;BME280;50936;51.660;5.616;2023-03-04T01:58:29;102218.56;;;5.59;100.00
64544;BME280;50936;51.660;5.616;2023-03-04T02:00:58;102215.00;;;5.59;100.00
64544;BME280;50936;51.660;5.616;2023-03-04T02:03:25;102216.94;;;5.54;100.00
64544;BME280;50936;51.660;5.616;2023-03-04T02:05:54;102213.41;;;5.52;100.00
64544;BME280;50936;51.660;5.616;2023-03-04T02:08:22;102214.28;;;5.52;100.00
64544;BME280;50936;51.660;5.616;2023-03-04T02:10:50;102207.22;;;5.50;100.00
64544;BME280;50936;51.660;5.616;2023-03-04T02:13:18;102202.84;;;5.46;100.00
64544;BME280;50936;51.660;5.616;2023-03-04T02:15:45;102202.03;;;5.42;100.00
64544;BME280;50936;51.660;5.616;2023-03-04T02:18:19;102198.53;;;5.40;100.00
64544;BME280;50936;51.660;5.616;2023-03-04T02:23:38;102199.31;;;5.44;100.00
64544;BME280;50936;51.660;5.616;2023-03-04T02:26:21;102197.72;;;5.36;100.00
64544;BME280;50936;51.660;5.616;2023-03-04T02:28:53;102197.88;;;5.30;100.00
64544;BME280;50936;51.660;5.616;2023-03-04T02:31:23;102191.63;;;5.31;100.00
64544;BME280;50936;51.660;5.616;2023-03-04T02:34:05;102188.94;;;5.31;100.00
64544;BME280;50936;51.660;5.616;2023-03-04T02:36:44;102195.19;;;5.32;100.00
64544;BME280;50936;51.660;5.616;2023-03-04T02:41:52;102188.94;;;5.31;100.00
64544;BME280;50936;51.660;5.616;2023-03-04T02:44:26;102189.78;;;5.33;100.00
64544;BME280;50936;51.660;5.616;2023-03-04T02:46:57;102185.19;;;5.38;100.00
64544;BME280;50936;51.660;5.616;2023-03-04T02:49:27;102185.09;;;5.42;100.00
64544;BME280;50936;51.660;5.616;2023-03-04T02:54:30;102180.84;;;5.33;100.00
64544;BME280;50936;51.660;5.616;2023-03-04T02:56:59;102179.84;;;5.38;100.00
64544;BME280;50936;51.660;5.616;2023-03-04T02:59:30;102179.84;;;5.38;100.00
64544;BME280;50936;51.660;5.616;2023-03-04T03:01:58;102183.50;;;5.34;100.00
64544;BME280;50936;51.660;5.616;2023-03-04T03:04:26;102184.44;;;5.33;100.00
64544;BME280;50936;51.660;5.616;2023-03-04T03:06:53;102179.06;;;5.33;100.00
64544;BME280;50936;51.660;5.616;2023-03-04T03:09:21;102176.38;;;5.33;100.00
64544;BME280;50936;51.660;5.616;2023-03-04T03:11:48;102165.69;;;5.33;100.00
64544;BME280;50936;51.660;5.616;2023-03-04T03:14:15;102170.19;;;5.31;100.00
64544;BME280;50936;51.660;5.616;2023-03-04T03:16:42;102171.97;;;5.31;100.00
64544;BME280;50936;51.660;5.616;2023-03-04T03:19:10;102169.25;;;5.32;100.00
64544;BME280;50936;51.660;5.616;2023-03-04T03:21:38;102164.66;;;5.37;100.00
64544;BME280;50936;51.660;5.616;2023-03-04T03:24:05;102165.56;;;5.36;100.00
64544;BME280;50936;51.660;5.616;2023-03-04T03:26:32;102162.16;;;5.31;100.00
64544;BME280;50936;51.660;5.616;2023-03-04T03:28:58;102157.66;;;5.32;100.00
64544;BME280;50936;51.660;5.616;2023-03-04T03:31:27;102165.69;;;5.33;100.00
64544;BME280;50936;51.660;5.616;2023-03-04T03:33:53;102157.50;;;5.38;100.00
64544;BME280;50936;51.660;5.616;2023-03-04T03:36:20;102163.66;;;5.42;100.00
64544;BME280;50936;51.660;5.616;2023-03-04T03:38:47;102158.28;;;5.42;100.00
64544;BME280;50936;51.660;5.616;2023-03-04T03:41:14;102158.28;;;5.42;100.00
64544;BME280;50936;51.660;5.616;2023-03-04T03:43:41;102160.13;;;5.39;100.00
64544;BME280;50936;51.660;5.616;2023-03-04T03:46:08;102152.06;;;5.41;100.00
64544;BME280;50936;51.660;5.616;2023-03-04T03:48:34;102149.41;;;5.39;100.00
64544;BME280;50936;51.660;5.616;2023-03-04T03:51:01;102155.56;;;5.43;100.00
64544;BME280;50936;51.660;5.616;2023-03-04T03:53:28;102154.72;;;5.43;100.00
64544;BME280;50936;51.660;5.616;2023-03-04T03:55:55;102154.66;;;5.44;100.00
64544;BME280;50936;51.660;5.616;2023-03-04T03:58:22;102149.25;;;5.46;100.00
64544;BME280;50936;51.660;5.616;2023-03-04T04:00:49;102154.72;;;5.43;100.00
64544;BME280;50936;51.660;5.616;2023-03-04T04:03:16;102151.09;;;5.44;100.00
64544;BME280;50936;51.660;5.616;2023-03-04T04:05:43;102153.91;;;5.39;100.00
64544;BME280;50936;51.660;5.616;2023-03-04T04:08:12;102160.13;;;5.39;100.00
64544;BME280;50936;51.660;5.616;2023-03-04T04:10:41;102155.72;;;5.38;100.00
64544;BME280;50936;51.660;5.616;2023-03-04T04:13:09;102161.91;;;5.40;100.00
64544;BME280;50936;51.660;5.616;2023-03-04T04:15:36;102160.13;;;5.39;100.00
64544;BME280;50936;51.660;5.616;2023-03-04T04:18:07;102161.13;;;5.37;100.00
64544;BME280;50936;51.660;5.616;2023-03-04T04:20:35;102154.84;;;5.36;100.00
64544;BME280;50936;51.660;5.616;2023-03-04T04:23:02;102165.50;;;5.39;100.00
64544;BME280;50936;51.660;5.616;2023-03-04T04:25:29;102162.06;;;5.34;100.00
64544;BME280;50936;51.660;5.616;2023-03-04T04:27:56;102161.19;;;5.34;100.00
64544;BME280;50936;51.660;5.616;2023-03-04T04:30:23;102162.16;;;5.31;100.00
64544;BME280;50936;51.660;5.616;2023-03-04T04:32:50;102165.78;;;5.29;100.00
64544;BME280;50936;51.660;5.616;2023-03-04T04:35:17;102158.63;;;5.29;100.00
64544;BME280;50936;51.660;5.616;2023-03-04T04:37:44;102162.22;;;5.28;100.00
64544;BME280;50936;51.660;5.616;2023-03-04T04:40:12;102167.66;;;5.25;100.00
64544;BME280;50936;51.660;5.616;2023-03-04T04:42:39;102167.75;;;5.22;100.00
64544;BME280;50936;51.660;5.616;2023-03-04T04:45:06;102169.50;;;5.23;100.00
64544;BME280;50936;51.660;5.616;2023-03-04T04:47:33;102166.75;;;5.26;100.00
64544;BME280;50936;51.660;5.616;2023-03-04T04:50:00;102166.63;;;5.31;100.00
64544;BME280;50936;51.660;5.616;2023-03-04T04:52:28;102166.56;;;5.32;100.00
64544;BME280;50936;51.660;5.616;2023-03-04T04:54:55;102166.63;;;5.31;100.00
64544;BME280;50936;51.660;5.616;2023-03-04T04:57:21;102167.59;;;5.28;100.00
64544;BME280;50936;51.660;5.616;2023-03-04T04:59:48;102166.66;;;5.29;100.00
64544;BME280;50936;51.660;5.616;2023-03-04T05:02:15;102169.44;;;5.26;100.00
64544;BME280;50936;51.660;5.616;2023-03-04T05:04:42;102160.44;;;5.27;100.00
64544;BME280;50936;51.660;5.616;2023-03-04T05:07:09;102168.31;;;5.35;100.00
64544;BME280;50936;51.660;5.616;2023-03-04T05:09:36;102172.69;;;5.37;100.00
64544;BME280;50936;51.660;5.616;2023-03-04T05:12:03;102172.69;;;5.37;99.83
64544;BME280;50936;51.660;5.616;2023-03-04T05:14:30;102171.03;;;5.33;100.00
64544;BME280;50936;51.660;5.616;2023-03-04T05:16:57;102170.19;;;5.31;100.00
64544;BME280;50936;51.660;5.616;2023-03-04T05:19:24;102176.47;;;5.30;100.00
64544;BME280;50936;51.660;5.616;2023-03-04T05:21:51;102173.75;;;5.32;100.00
64544;BME280;50936;51.660;5.616;2023-03-04T05:24:18;102165.75;;;5.30;100.00
64544;BME280;50936;51.660;5.616;2023-03-04T05:26:45;102163.03;;;5.32;100.00
64544;BME280;50936;51.660;5.616;2023-03-04T05:29:12;102168.34;;;5.33;100.00
64544;BME280;50936;51.660;5.616;2023-03-04T05:31:39;102158.47;;;5.35;100.00
64544;BME280;50936;51.660;5.616;2023-03-04T05:34:06;102162.97;;;5.35;100.00
64544;BME280;50936;51.660;5.616;2023-03-04T05:36:33;102160.31;;;5.33;100.00
64544;BME280;50936;51.660;5.616;2023-03-04T05:39:00;102162.16;;;5.31;100.00
64544;BME280;50936;51.660;5.616;2023-03-04T05:41:26;102159.50;;;5.30;100.00
64544;BME280;50936;51.660;5.616;2023-03-04T05:43:53;102171.13;;;5.29;100.00
64544;BME280;50936;51.660;5.616;2023-03-04T05:46:22;102167.66;;;5.25;100.00
64544;BME280;50936;51.660;5.616;2023-03-04T05:48:52;102176.75;;;5.18;100.00
64544;BME280;50936;51.660;5.616;2023-03-04T05:51:20;102178.69;;;5.13;100.00
64544;BME280;50936;51.660;5.616;2023-03-04T05:53:48;102173.47;;;5.08;100.00
64544;BME280;50936;51.660;5.616;2023-03-04T05:56:17;102175.25;;;5.08;100.00
64544;BME280;50936;51.660;5.616;2023-03-04T05:58:46;102175.22;;;5.09;100.00
64544;BME280;50936;51.660;5.616;2023-03-04T06:01:13;102170.50;;;5.19;100.00
64544;BME280;50936;51.660;5.616;2023-03-04T06:03:40;102173.19;;;5.19;100.00
64544;BME280;50936;51.660;5.616;2023-03-04T06:06:09;102178.53;;;5.19;100.00
64544;BME280;50936;51.660;5.616;2023-03-04T06:08:36;102173.25;;;5.16;100.00
64544;BME280;50936;51.660;5.616;2023-03-04T06:11:03;102178.69;;;5.13;100.00
64544;BME280;50936;51.660;5.616;2023-03-04T06:13:31;102182.16;;;5.16;100.00
64544;BME280;50936;51.660;5.616;2023-03-04T06:15:59;102182.22;;;5.15;100.00
64544;BME280;50936;51.660;5.616;2023-03-04T06:18:27;102184.91;;;5.15;100.00
64544;BME280;50936;51.660;5.616;2023-03-04T06:20:59;102176.88;;;5.15;100.00
64544;BME280;50936;51.660;5.616;2023-03-04T06:23:28;102182.22;;;5.15;100.00
64544;BME280;50936;51.660;5.616;2023-03-04T06:25:58;102182.28;;;5.12;100.00
64544;BME280;50936;51.660;5.616;2023-03-04T06:28:27;102190.38;;;5.09;100.00
64544;BME280;50936;51.660;5.616;2023-03-04T06:30:55;102190.44;;;5.07;100.00
64544;BME280;50936;51.660;5.616;2023-03-04T06:33:23;102191.34;;;5.08;100.00
64544;BME280;50936;51.660;5.616;2023-03-04T06:35:55;102191.34;;;5.08;100.00
64544;BME280;50936;51.660;5.616;2023-03-04T06:38:23;102190.38;;;5.09;100.00
64544;BME280;50936;51.660;5.616;2023-03-04T06:40:51;102194.75;;;5.13;100.00
64544;BME280;50936;51.660;5.616;2023-03-04T06:43:22;102183.97;;;5.16;100.00
64544;BME280;50936;51.660;5.616;2023-03-04T06:45:49;102187.41;;;5.21;100.00
64544;BME280;50936;51.660;5.616;2023-03-04T06:48:16;102192.59;;;5.27;100.00
64544;BME280;50936;51.660;5.616;2023-03-04T06:50:43;102201.47;;;5.29;100.00
64544;BME280;50936;51.660;5.616;2023-03-04T06:53:10;102191.63;;;5.31;100.00
64544;BME280;50936;51.660;5.616;2023-03-04T06:55:37;102188.94;;;5.31;100.00
64544;BME280;50936;51.660;5.616;2023-03-04T06:58:04;102195.22;;;5.30;100.00
64544;BME280;50936;51.660;5.616;2023-03-04T07:00:31;102197.88;;;5.30;100.00
64544;BME280;50936;51.660;5.616;2023-03-04T07:02:58;102199.66;;;5.31;100.00
64544;BME280;50936;51.660;5.616;2023-03-04T07:05:25;102196.13;;;5.29;100.00
64544;BME280;50936;51.660;5.616;2023-03-04T07:07:52;102201.47;;;5.29;100.00
64544;BME280;50936;51.660;5.616;2023-03-04T07:10:19;102201.56;;;5.26;100.00
64544;BME280;50936;51.660;5.616;2023-03-04T07:12:46;102190.94;;;5.23;100.00
64544;BME280;50936;51.660;5.616;2023-03-04T07:15:13;102197.09;;;5.27;100.00
64544;BME280;50936;51.660;5.616;2023-03-04T07:17:40;102200.63;;;5.27;100.00
64544;BME280;50936;51.660;5.616;2023-03-04T07:20:08;102196.03;;;5.32;100.00
64544;BME280;50936;51.660;5.616;2023-03-04T07:22:35;102203.25;;;5.30;100.00
64544;BME280;50936;51.660;5.616;2023-03-04T07:25:03;102199.56;;;5.34;100.00
64544;BME280;50936;51.660;5.616;2023-03-04T07:27:31;102207.59;;;5.34;100.00
64544;BME280;50936;51.660;5.616;2023-03-04T07:29:58;102212.06;;;5.35;100.00
64544;BME280;50936;51.660;5.616;2023-03-04T07:32:25;102211.19;;;5.35;100.00
64544;BME280;50936;51.660;5.616;2023-03-04T07:34:52;102212.97;;;5.34;100.00
64544;BME280;50936;51.660;5.616;2023-03-04T07:37:19;102216.53;;;5.35;100.00
64544;BME280;50936;51.660;5.616;2023-03-04T07:39:46;102219.25;;;5.33;100.00
64544;BME280;50936;51.660;5.616;2023-03-04T07:42:12;102224.50;;;5.36;100.00
64544;BME280;50936;51.660;5.616;2023-03-04T07:44:41;102220.91;;;5.39;100.00
64544;BME280;50936;51.660;5.616;2023-03-04T07:47:08;102222.53;;;5.45;100.00
64544;BME280;50936;51.660;5.616;2023-03-04T07:49:35;102224.28;;;5.46;100.00
64544;BME280;50936;51.660;5.616;2023-03-04T07:52:03;102227.84;;;5.46;100.00
64544;BME280;50936;51.660;5.616;2023-03-04T07:54:31;102234.84;;;5.52;100.00
64544;BME280;50936;51.660;5.616;2023-03-04T07:56:58;102231.09;;;5.59;100.00
64544;BME280;50936;51.660;5.616;2023-03-04T07:59:25;102236.28;;;5.65;100.00
64544;BME280;50936;51.660;5.616;2023-03-04T08:01:52;102233.38;;;5.73;100.00
64544;BME280;50936;51.660;5.616;2023-03-04T08:04:18;102228.81;;;5.76;100.00
64544;BME280;50936;51.660;5.616;2023-03-04T08:06:45;102235.78;;;5.84;100.00
64544;BME280;50936;51.660;5.616;2023-03-04T08:09:14;102232.75;;;5.97;100.00
64544;BME280;50936;51.660;5.616;2023-03-04T08:11:41;102230.63;;;6.10;100.00
64544;BME280;50936;51.660;5.616;2023-03-04T08:14:10;102234.88;;;6.18;100.00
64544;BME280;50936;51.660;5.616;2023-03-04T08:16:38;102230.44;;;6.16;100.00
64544;BME280;50936;51.660;5.616;2023-03-04T08:19:05;102241.19;;;6.15;100.00
64544;BME280;50936;51.660;5.616;2023-03-04T08:21:33;102238.28;;;6.23;100.00
64544;BME280;50936;51.660;5.616;2023-03-04T08:24:01;102233.59;;;6.31;100.00
64544;BME280;50936;51.660;5.616;2023-03-04T08:26:37;102239.72;;;6.36;100.00
64544;BME280;50936;51.660;5.616;2023-03-04T08:29:17;102239.59;;;6.39;100.00
64544;BME280;50936;51.660;5.616;2023-03-04T08:31:47;102243.16;;;6.41;100.00
64544;BME280;50936;51.660;5.616;2023-03-04T08:34:16;102245.56;;;6.50;100.00
64544;BME280;50936;51.660;5.616;2023-03-04T08:36:46;102242.75;;;6.53;100.00
64544;BME280;50936;51.660;5.616;2023-03-04T08:39:15;102240.81;;;6.59;100.00
64544;BME280;50936;51.660;5.616;2023-03-04T08:41:45;102252.09;;;6.70;100.00
64544;BME280;50936;51.660;5.616;2023-03-04T08:44:13;102251.63;;;6.85;100.00
64544;BME280;50936;51.660;5.616;2023-03-04T08:46:41;102257.47;;;7.00;100.00
64544;BME280;50936;51.660;5.616;2023-03-04T08:49:11;102254.56;;;7.06;100.00
64544;BME280;50936;51.660;5.616;2023-03-04T08:51:38;102249.16;;;7.07;100.00
64544;BME280;50936;51.660;5.616;2023-03-04T08:54:05;102248.72;;;7.20;100.00
64544;BME280;50936;51.660;5.616;2023-03-04T08:56:32;102241.34;;;7.26;100.00
64544;BME280;50936;51.660;5.616;2023-03-04T08:58:59;102242.94;;;7.32;100.00
64544;BME280;50936;51.660;5.616;2023-03-04T09:01:26;102256.25;;;7.37;100.00
64544;BME280;50936;51.660;5.616;2023-03-04T09:03:53;102251.66;;;7.40;100.00
64544;BME280;50936;51.660;5.616;2023-03-04T09:06:20;102245.38;;;7.40;100.00
64544;BME280;50936;51.660;5.616;2023-03-04T09:08:47;102240.06;;;7.38;100.00
64544;BME280;50936;51.660;5.616;2023-03-04T09:11:14;102238.03;;;7.45;100.00
64544;BME280;50936;51.660;5.616;2023-03-04T09:13:42;102239.69;;;7.49;100.00
64544;BME280;50936;51.660;5.616;2023-03-04T09:16:11;102232.47;;;7.51;100.00
64544;BME280;50936;51.660;5.616;2023-03-04T09:18:40;102229.59;;;7.56;100.00
64544;BME280;50936;51.660;5.616;2023-03-04T09:21:08;102230.06;;;7.68;100.00
64544;BME280;50936;51.660;5.616;2023-03-04T09:23:36;102224.41;;;7.76;100.00
64544;BME280;50936;51.660;5.616;2023-03-04T09:26:15;102219.75;;;7.81;100.00
64544;BME280;50936;51.660;5.616;2023-03-04T09:28:44;102217.81;;;7.85;100.00
64544;BME280;50936;51.660;5.616;2023-03-04T09:31:13;102214.91;;;7.91;100.00
64544;BME280;50936;51.660;5.616;2023-03-04T09:33:40;102222.56;;;8.02;100.00
64544;BME280;50936;51.660;5.616;2023-03-04T09:36:10;102216.00;;;8.10;100.00
64544;BME280;50936;51.660;5.616;2023-03-04T09:38:39;102219.03;;;8.25;100.00
64544;BME280;50936;51.660;5.616;2023-03-04T09:41:11;102218.69;;;8.34;100.00
64544;BME280;50936;51.660;5.616;2023-03-04T09:43:44;102218.59;;;8.37;100.00
64544;BME280;50936;51.660;5.616;2023-03-04T09:46:35;102213.03;;;8.42;99.97
64544;BME280;50936;51.660;5.616;2023-03-04T09:49:04;102218.38;;;8.43;99.28
64544;BME280;50936;51.660;5.616;2023-03-04T09:51:50;102219.50;;;8.36;99.50
64544;BME280;50936;51.660;5.616;2023-03-04T09:57:13;102218.38;;;8.18;99.68
64544;BME280;50936;51.660;5.616;2023-03-04T10:00:14;102214.34;;;8.06;100.00
64544;BME280;50936;51.660;5.616;2023-03-04T10:05:33;102215.66;;;7.95;100.00
64544;BME280;50936;51.660;5.616;2023-03-04T10:08:26;102218.88;;;7.81;100.00
64544;BME280;50936;51.660;5.616;2023-03-04T10:11:14;102215.22;;;7.82;100.00
64544;BME280;50936;51.660;5.616;2023-03-04T10:14:01;102210.56;;;7.87;100.00
64544;BME280;50936;51.660;5.616;2023-03-04T10:16:44;102211.06;;;7.98;100.00
64544;BME280;50936;51.660;5.616;2023-03-04T10:21:57;102209.75;;;7.85;100.00
64544;BME280;50936;51.660;5.616;2023-03-04T10:24:27;102213.69;;;7.75;100.00
64544;BME280;50936;51.660;5.616;2023-03-04T10:27:00;102208.53;;;7.68;100.00
64544;BME280;50936;51.660;5.616;2023-03-04T10:29:32;102211.56;;;7.59;100.00
64544;BME280;50936;51.660;5.616;2023-03-04T10:31:59;102216.22;;;7.54;100.00
64544;BME280;50936;51.660;5.616;2023-03-04T10:34:26;102210.84;;;7.54;100.00
64544;BME280;50936;51.660;5.616;2023-03-04T10:36:57;102218.91;;;7.54;100.00
64544;BME280;50936;51.660;5.616;2023-03-04T10:39:34;102211.50;;;7.61;100.00
64544;BME280;50936;51.660;5.616;2023-03-04T10:44:51;102207.50;;;8.21;100.00
64544;BME280;50936;51.660;5.616;2023-03-04T10:47:18;102192.22;;;8.47;100.00
64544;BME280;50936;51.660;5.616;2023-03-04T10:49:53;102197.63;;;8.69;100.00
64544;BME280;50936;51.660;5.616;2023-03-04T10:55:18;102187.72;;;8.92;100.00
64544;BME280;50936;51.660;5.616;2023-03-04T10:57:51;102188.91;;;8.84;100.00
64544;BME280;50936;51.660;5.616;2023-03-04T11:00:32;102191.75;;;8.81;100.00
64544;BME280;50936;51.660;5.616;2023-03-04T11:08:44;102182.16;;;8.96;100.00
64544;BME280;50936;51.660;5.616;2023-03-04T11:11:41;102180.00;;;9.04;100.00
64544;BME280;50936;51.660;5.616;2023-03-04T11:14:20;102176.06;;;9.13;100.00
64544;BME280;50936;51.660;5.616;2023-03-04T11:17:01;102172.38;;;9.16;100.00
64544;BME280;50936;51.660;5.616;2023-03-04T11:19:38;102166.09;;;9.36;100.00
64544;BME280;50936;51.660;5.616;2023-03-04T11:22:05;102158.44;;;9.68;96.92
64544;BME280;50936;51.660;5.616;2023-03-04T11:24:33;102152.06;;;9.69;95.66
64544;BME280;50936;51.660;5.616;2023-03-04T11:27:23;102155.84;;;9.64;94.99
64544;BME280;50936;51.660;5.616;2023-03-04T11:33:27;102157.38;;;9.91;97.05
64544;BME280;50936;51.660;5.616;2023-03-04T11:39:00;102151.91;;;9.92;94.76
64544;BME280;50936;51.660;5.616;2023-03-04T11:41:55;102148.16;;;9.76;94.18
64544;BME280;50936;51.660;5.616;2023-03-04T11:44:29;102143.75;;;9.54;95.38
64544;BME280;50936;51.660;5.616;2023-03-04T11:56:01;102125.81;;;9.72;97.74
64544;BME280;50936;51.660;5.616;2023-03-04T11:58:54;102126.44;;;9.79;96.22
64544;BME280;50936;51.660;5.616;2023-03-04T12:10:32;102113.13;;;9.14;97.93
64544;BME280;50936;51.660;5.616;2023-03-04T12:21:49;102094.50;;;8.88;100.00
64544;BME280;50936;51.660;5.616;2023-03-04T12:30:19;102093.00;;;8.80;100.00
64544;BME280;50936;51.660;5.616;2023-03-04T12:39:39;102076.38;;;8.91;100.00
64544;BME280;50936;51.660;5.616;2023-03-04T12:45:27;102075.44;;;8.92;100.00
64544;BME280;50936;51.660;5.616;2023-03-04T12:51:17;102069.31;;;8.89;100.00
64544;BME280;50936;51.660;5.616;2023-03-04T12:54:15;102067.66;;;8.84;100.00
64544;BME280;50936;51.660;5.616;2023-03-04T12:56:52;102065.59;;;8.71;100.00
64544;BME280;50936;51.660;5.616;2023-03-04T12:59:24;102060.44;;;8.64;100.00
64544;BME280;50936;51.660;5.616;2023-03-04T13:10:25;102061.47;;;8.16;100.00
64544;BME280;50936;51.660;5.616;2023-03-04T13:12:57;102067.28;;;8.05;100.00
64544;BME280;50936;51.660;5.616;2023-03-04T13:15:29;102057.91;;;7.94;100.00
64544;BME280;50936;51.660;5.616;2023-03-04T13:23:38;102050.50;;;7.77;100.00
64544;BME280;50936;51.660;5.616;2023-03-04T13:26:32;102050.41;;;7.78;100.00
64544;BME280;50936;51.660;5.616;2023-03-04T13:32:10;102044.38;;;7.95;100.00
64544;BME280;50936;51.660;5.616;2023-03-04T13:34:41;102036.75;;;8.06;100.00
64544;BME280;50936;51.660;5.616;2023-03-04T13:37:35;102034.63;;;8.15;100.00
64544;BME280;50936;51.660;5.616;2023-03-04T13:40:33;102025.00;;;8.31;100.00
64544;BME280;50936;51.660;5.616;2023-03-04T13:43:23;102027.13;;;8.67;100.00
64544;BME280;50936;51.660;5.616;2023-03-04T13:45:51;102022.56;;;8.90;100.00
64544;BME280;50936;51.660;5.616;2023-03-04T13:48:24;102019.72;;;9.13;100.00
64544;BME280;50936;51.660;5.616;2023-03-04T13:50:56;102014.97;;;9.39;100.00
64544;BME280;50936;51.660;5.616;2023-03-04T13:53:45;102027.53;;;9.40;100.00
64544;BME280;50936;51.660;5.616;2023-03-04T13:59:03;102024.56;;;9.25;100.00
64544;BME280;50936;51.660;5.616;2023-03-04T14:01:58;102017.69;;;9.18;100.00
64544;BME280;50936;51.660;5.616;2023-03-04T14:04:35;102018.97;;;9.10;100.00
64544;BME280;50936;51.660;5.616;2023-03-04T14:07:24;102021.91;;;9.05;100.00
64544;BME280;50936;51.660;5.616;2023-03-04T14:12:51;102009.81;;;8.73;100.00
64544;BME280;50936;51.660;5.616;2023-03-04T14:15:24;102013.78;;;8.64;100.00
64544;BME280;50936;51.660;5.616;2023-03-04T14:17:57;102009.34;;;8.63;100.00
64544;BME280;50936;51.660;5.616;2023-03-04T14:20:35;102011.38;;;8.58;100.00
64544;BME280;50936;51.660;5.616;2023-03-04T14:23:22;102013.09;;;8.59;100.00
64544;BME280;50936;51.660;5.616;2023-03-04T14:25:50;102009.59;;;8.57;100.00
64544;BME280;50936;51.660;5.616;2023-03-04T14:28:19;102012.16;;;8.60;100.00
64544;BME280;50936;51.660;5.616;2023-03-04T14:30:51;102002.19;;;8.62;100.00
64544;BME280;50936;51.660;5.616;2023-03-04T14:33:23;102007.47;;;8.65;100.00
64544;BME280;50936;51.660;5.616;2023-03-04T14:35:55;102002.09;;;8.65;100.00
64544;BME280;50936;51.660;5.616;2023-03-04T14:38:31;101993.03;;;8.66;100.00
64544;BME280;50936;51.660;5.616;2023-03-04T14:43:55;101988.63;;;8.85;100.00
64544;BME280;50936;51.660;5.616;2023-03-04T14:46:31;101986.59;;;8.91;100.00
64544;BME280;50936;51.660;5.616;2023-03-04T14:49:08;101981.53;;;9.03;100.00
64544;BME280;50936;51.660;5.616;2023-03-04T14:51:54;101986.81;;;9.25;100.00
64544;BME280;50936;51.660;5.616;2023-03-04T14:54:37;101984.94;;;9.28;100.00